createdAt,value
2018-06-10T00:01:54.505Z,84.09
2018-06-10T00:04:24.521Z,83.68
2018-06-10T00:06:54.617Z,83.38
2018-06-10T00:09:24.688Z,83.40
2018-06-10T00:11:54.743Z,83.29
2018-06-10T00:14:24.375Z,83.15
2018-06-10T00:16:54.451Z,83.25
2018-06-10T00:19:24.453Z,83.03
2018-06-10T00:21:54.512Z,82.54
2018-06-10T00:24:24.580Z,82.47
2018-06-10T00:26:54.628Z,82.27
2018-06-10T00:29:24.663Z,82.55
2018-06-10T00:31:54.691Z,82.73
2018-06-10T00:34:24.889Z,82.62
2018-06-10T00:36:54.906Z,82.23
2018-06-10T00:39:24.907Z,82.32
2018-06-10T00:41:54.923Z,82.23
2018-06-10T00:44:24.940Z,82.15
2018-06-10T00:46:54.982Z,82.68
2018-06-10T00:49:25.024Z,82.79
2018-06-10T00:51:55.186Z,82.86
2018-06-10T00:54:25.264Z,83.01
2018-06-10T00:56:55.360Z,83.12
2018-06-10T00:59:25.795Z,83.61
2018-06-10T01:01:55.873Z,83.34
2018-06-10T01:04:25.994Z,83.61
2018-06-10T01:06:56.127Z,83.29
2018-06-10T01:09:26.174Z,83.58
2018-06-10T01:11:56.251Z,83.55
2018-06-10T01:14:26.304Z,83.78
2018-06-10T01:16:56.379Z,83.95
2018-06-10T01:19:26.428Z,84.18
2018-06-10T01:21:56.468Z,83.89
2018-06-10T01:24:26.509Z,84.10
2018-06-10T01:26:56.581Z,83.64
2018-06-10T01:29:26.588Z,84.41
2018-06-10T01:31:56.674Z,84.71
2018-06-10T01:34:26.752Z,84.66
2018-06-10T01:36:56.838Z,84.63
2018-06-10T01:39:26.868Z,84.49
2018-06-10T01:41:56.959Z,84.46
2018-06-10T01:44:27.308Z,84.73
2018-06-10T01:46:57.444Z,84.10
2018-06-10T01:49:27.531Z,84.38
2018-06-10T01:51:57.597Z,84.23
2018-06-10T01:54:27.651Z,83.92
2018-06-10T01:56:57.709Z,83.80
2018-06-10T01:59:27.800Z,84.52
2018-06-10T02:01:57.871Z,84.21
2018-06-10T02:04:27.990Z,84.12
2018-06-10T02:06:58.084Z,84.05
2018-06-10T02:09:28.128Z,84.04
2018-06-10T02:11:58.245Z,84.96
2018-06-10T02:14:28.290Z,85.13
2018-06-10T02:16:58.316Z,85.07
2018-06-10T02:19:28.487Z,84.77
2018-06-10T02:21:58.632Z,84.75
2018-06-10T02:24:28.751Z,85.67
2018-06-10T02:26:58.872Z,85.76
2018-06-10T02:29:28.993Z,85.65
2018-06-10T02:31:59.030Z,85.85
2018-06-10T02:34:29.056Z,85.64
2018-06-10T02:36:59.142Z,85.90
2018-06-10T02:39:29.189Z,86.16
2018-06-10T02:41:59.217Z,86.55
2018-06-10T02:44:29.316Z,87.33
2018-06-10T02:46:59.373Z,87.29
2018-06-10T02:49:29.489Z,87.10
2018-06-10T02:52:00.478Z,86.55
2018-06-10T02:54:30.191Z,86.34
2018-06-10T02:57:00.271Z,85.77
2018-06-10T02:59:30.340Z,85.25
2018-06-10T03:02:00.390Z,85.24
2018-06-10T03:04:30.429Z,85.48
2018-06-10T03:07:00.525Z,85.10
2018-06-10T03:09:30.636Z,85.35
2018-06-10T03:12:00.704Z,85.92
2018-06-10T03:14:30.812Z,86.04
2018-06-10T03:17:00.824Z,86.18
2018-06-10T03:19:31.268Z,86.26
2018-06-10T03:22:01.358Z,86.15
2018-06-10T03:24:31.399Z,86.32
2018-06-10T03:27:01.980Z,86.35
2018-06-10T03:29:32.061Z,86.34
2018-06-10T03:32:02.136Z,86.15
2018-06-10T03:34:32.193Z,86.39
2018-06-10T03:37:02.238Z,86.11
2018-06-10T03:39:32.309Z,86.22
2018-06-10T03:42:02.356Z,86.45
2018-06-10T03:44:32.460Z,86.48
2018-06-10T03:47:02.513Z,86.51
2018-06-10T03:49:32.588Z,86.87
2018-06-10T03:52:02.625Z,87.06
2018-06-10T03:54:32.709Z,86.98
2018-06-10T03:57:02.812Z,87.14
2018-06-10T03:59:32.882Z,87.15
2018-06-10T04:02:03.132Z,87.44
2018-06-10T04:04:33.193Z,87.51
2018-06-10T04:07:03.226Z,87.96
2018-06-10T04:09:33.328Z,87.69
2018-06-10T04:12:03.402Z,87.80
2018-06-10T04:14:33.468Z,87.70
2018-06-10T04:17:03.688Z,87.79
2018-06-10T04:19:33.799Z,87.69
2018-06-10T04:22:03.879Z,87.29
2018-06-10T04:24:33.929Z,87.25
2018-06-10T04:27:04.394Z,87.01
2018-06-10T04:29:34.503Z,86.35
2018-06-10T04:32:04.590Z,86.57
2018-06-10T04:34:34.652Z,86.23
2018-06-10T04:37:04.750Z,86.36
2018-06-10T04:39:35.301Z,86.72
2018-06-10T04:42:05.437Z,86.00
2018-06-10T04:44:35.505Z,86.08
2018-06-10T04:47:05.684Z,86.36
2018-06-10T04:49:35.726Z,85.94
2018-06-10T04:52:05.756Z,85.82
2018-06-10T04:54:35.848Z,85.36
2018-06-10T04:57:05.988Z,84.84
2018-06-10T04:59:36.070Z,84.42
2018-06-10T05:02:06.166Z,84.45
2018-06-10T05:04:36.231Z,84.31
2018-06-10T05:07:06.294Z,84.54
2018-06-10T05:09:36.431Z,84.58
2018-06-10T05:12:06.465Z,84.17
2018-06-10T05:14:36.505Z,84.28
2018-06-10T05:17:06.523Z,83.61
2018-06-10T05:19:37.359Z,83.45
2018-06-10T05:22:07.317Z,83.20
2018-06-10T05:24:37.402Z,82.63
2018-06-10T05:27:08.492Z,82.13
2018-06-10T05:29:38.539Z,82.17
2018-06-10T05:32:08.175Z,80.72
2018-06-10T05:34:38.284Z,80.30
2018-06-10T05:37:08.408Z,79.77
2018-06-10T05:39:38.492Z,80.21
2018-06-10T05:42:08.544Z,79.86
2018-06-10T05:44:38.245Z,78.30
2018-06-10T05:47:08.319Z,78.06
2018-06-10T05:49:38.367Z,77.83
2018-06-10T05:52:08.384Z,77.88
2018-06-10T05:54:38.464Z,77.77
2018-06-10T05:57:08.564Z,76.33
2018-06-10T05:59:38.613Z,75.52
2018-06-10T06:02:08.693Z,72.54
2018-06-10T06:04:38.678Z,75.25
2018-06-10T06:07:08.760Z,75.61
2018-06-10T06:09:38.779Z,76.57
2018-06-10T06:12:08.793Z,72.71
2018-06-10T06:14:38.751Z,70.80
2018-06-10T06:17:08.769Z,70.86
2018-06-10T06:19:38.774Z,72.64
2018-06-10T06:22:08.804Z,70.97
2018-06-10T06:24:39.333Z,69.51
2018-06-10T06:27:09.367Z,70.47
2018-06-10T06:29:39.375Z,69.07
2018-06-10T06:32:09.478Z,68.82
2018-06-10T06:34:39.555Z,69.81
2018-06-10T06:37:09.600Z,69.88
2018-06-10T06:39:39.680Z,68.56
2018-06-10T06:42:09.806Z,67.11
2018-06-10T06:44:39.826Z,67.42
2018-06-10T06:47:09.914Z,68.29
2018-06-10T06:49:39.923Z,69.18
2018-06-10T06:52:09.988Z,68.46
2018-06-10T06:54:40.248Z,69.73
2018-06-10T06:57:10.368Z,68.02
2018-06-10T06:59:41.361Z,65.67
2018-06-10T07:02:11.497Z,65.82
2018-06-10T07:04:41.532Z,65.72
2018-06-10T07:07:11.591Z,67.31
2018-06-10T07:09:41.591Z,68.15
2018-06-10T07:12:11.635Z,69.73
2018-06-10T07:14:41.292Z,69.19
2018-06-10T07:17:11.379Z,67.76
2018-06-10T07:19:41.446Z,68.31
2018-06-10T07:22:11.493Z,67.39
2018-06-10T07:24:41.536Z,68.14
2018-06-10T07:27:11.618Z,68.10
2018-06-10T07:29:41.708Z,68.18
2018-06-10T07:32:11.853Z,69.67
2018-06-10T07:34:41.916Z,68.68
2018-06-10T07:37:12.075Z,68.21
2018-06-10T07:39:42.040Z,67.18
2018-06-10T07:42:12.051Z,67.65
2018-06-10T07:44:42.035Z,65.53
2018-06-10T07:47:12.118Z,65.54
2018-06-10T07:49:42.433Z,68.13
2018-06-10T07:52:12.541Z,64.86
2018-06-10T07:54:42.515Z,66.13
2018-06-10T07:57:12.910Z,66.26
2018-06-10T07:59:42.969Z,65.70
2018-06-10T08:02:13.140Z,66.76
2018-06-10T08:04:43.227Z,64.36
2018-06-10T08:07:13.381Z,62.45
2018-06-10T08:09:43.354Z,60.94
2018-06-10T08:12:13.381Z,62.15
2018-06-10T08:14:43.389Z,61.34
2018-06-10T08:17:13.447Z,60.68
2018-06-10T08:19:43.452Z,65.60
2018-06-10T08:22:13.459Z,59.98
2018-06-10T08:24:43.531Z,61.77
2018-06-10T08:27:13.542Z,62.41
2018-06-10T08:29:43.599Z,62.69
2018-06-10T08:32:13.603Z,59.83
2018-06-10T08:34:43.578Z,59.50
2018-06-10T08:37:13.611Z,58.98
2018-06-10T08:39:43.595Z,60.48
2018-06-10T08:42:13.632Z,63.32
2018-06-10T08:44:43.646Z,61.86
2018-06-10T08:47:13.715Z,60.22
2018-06-10T08:49:43.728Z,62.78
2018-06-10T08:52:13.782Z,61.92
2018-06-10T08:54:44.098Z,60.34
2018-06-10T08:57:14.464Z,62.77
2018-06-10T08:59:44.480Z,60.48
2018-06-10T09:02:14.488Z,64.16
2018-06-10T09:04:44.487Z,61.63
2018-06-10T09:07:14.588Z,60.80
2018-06-10T09:09:45.735Z,60.49
2018-06-10T09:12:15.869Z,60.32
2018-06-10T09:14:45.928Z,61.17
2018-06-10T09:17:15.910Z,59.32
2018-06-10T09:19:45.940Z,61.82
2018-06-10T09:22:16.030Z,59.46
2018-06-10T09:24:46.090Z,62.12
2018-06-10T09:27:16.183Z,60.50
2018-06-10T09:29:46.232Z,60.16
2018-06-10T09:32:16.235Z,62.21
2018-06-10T09:34:46.754Z,61.37
2018-06-10T09:37:16.859Z,62.10
2018-06-10T09:39:47.000Z,62.67
2018-06-10T09:42:17.056Z,59.87
2018-06-10T09:44:47.124Z,60.90
2018-06-10T09:47:17.244Z,60.16
2018-06-10T09:49:47.437Z,62.92
2018-06-10T09:52:17.602Z,62.45
2018-06-10T09:54:47.986Z,63.32
2018-06-10T09:57:18.184Z,62.04
2018-06-10T09:59:48.394Z,63.24
2018-06-10T10:02:18.737Z,61.27
2018-06-10T10:04:49.101Z,61.36
2018-06-10T10:07:19.333Z,60.49
2018-06-10T10:09:49.762Z,59.17
2018-06-10T10:12:20.214Z,59.71
2018-06-10T10:14:50.366Z,58.83
2018-06-10T10:17:20.761Z,60.08
2018-06-10T10:19:50.863Z,64.58
2018-06-10T10:22:20.918Z,58.11
2018-06-10T10:27:20.604Z,58.71
2018-06-10T10:29:50.858Z,59.21
2018-06-10T10:32:21.193Z,57.50
2018-06-10T10:34:51.279Z,54.41
2018-06-10T10:37:21.384Z,58.05
2018-06-10T10:39:51.418Z,58.35
2018-06-10T10:42:21.540Z,59.24
2018-06-10T10:44:51.642Z,55.84
2018-06-10T10:47:21.944Z,55.30
2018-06-10T10:49:51.973Z,58.14
2018-06-10T10:52:22.264Z,54.92
2018-06-10T10:54:53.410Z,55.79
2018-06-10T10:57:23.647Z,55.48
2018-06-10T10:59:53.736Z,53.45
2018-06-10T11:02:23.757Z,53.28
2018-06-10T11:04:53.781Z,51.42
2018-06-10T11:07:24.134Z,51.94
2018-06-10T11:09:54.205Z,53.97
2018-06-10T11:12:24.371Z,54.13
2018-06-10T11:14:54.729Z,54.24
2018-06-10T11:17:24.807Z,49.26
2018-06-10T11:19:54.836Z,51.88
2018-06-10T11:22:25.013Z,54.80
2018-06-10T11:24:55.058Z,53.67
2018-06-10T11:27:25.285Z,53.08
2018-06-10T11:29:55.332Z,55.59
2018-06-10T11:32:24.994Z,55.29
2018-06-10T11:34:55.468Z,56.00
2018-06-10T11:37:25.648Z,59.44
2018-06-10T11:39:55.719Z,59.15
2018-06-10T11:42:26.512Z,54.67
2018-06-10T11:44:56.533Z,54.29
2018-06-10T11:47:26.677Z,53.86
2018-06-10T11:49:56.764Z,52.55
2018-06-10T11:52:26.888Z,53.78
2018-06-10T11:54:57.132Z,52.92
2018-06-10T11:57:27.334Z,55.34
2018-06-10T11:59:57.401Z,53.77
2018-06-10T12:02:27.386Z,52.25
2018-06-10T12:04:57.429Z,51.55
2018-06-10T12:07:27.633Z,54.10
2018-06-10T12:09:57.833Z,53.47
2018-06-10T12:12:28.054Z,55.71
2018-06-10T12:14:58.359Z,53.97
2018-06-10T12:17:29.169Z,55.09
2018-06-10T12:19:59.242Z,52.25
2018-06-10T12:22:28.944Z,55.53
2018-06-10T12:24:58.745Z,53.50
2018-06-10T12:27:29.527Z,57.33
2018-06-10T12:29:59.748Z,53.13
2018-06-10T12:32:30.910Z,51.91
2018-06-10T12:35:00.959Z,58.19
2018-06-10T12:37:31.196Z,52.95
2018-06-10T12:40:01.249Z,54.51
2018-06-10T12:42:31.405Z,52.75
2018-06-10T12:45:01.541Z,53.81
2018-06-10T12:47:32.314Z,52.79
2018-06-10T12:50:02.379Z,55.35
2018-06-10T12:52:32.755Z,54.95
2018-06-10T12:55:02.925Z,54.65
2018-06-10T12:57:33.123Z,54.14
2018-06-10T13:00:03.260Z,53.44
2018-06-10T13:02:33.393Z,54.58
2018-06-10T13:05:03.434Z,52.56
2018-06-10T13:07:33.654Z,54.77
2018-06-10T13:10:03.809Z,53.84
2018-06-10T13:12:34.028Z,53.95
2018-06-10T13:15:04.067Z,52.72
2018-06-10T13:17:34.319Z,54.36
2018-06-10T13:20:04.122Z,53.94
2018-06-10T13:22:34.269Z,55.01
2018-06-10T13:25:04.776Z,55.28
2018-06-10T13:27:35.043Z,55.95
2018-06-10T13:30:05.916Z,55.98
2018-06-10T13:32:36.016Z,53.87
2018-06-10T13:35:06.216Z,53.78
2018-06-10T13:37:36.271Z,54.60
2018-06-10T13:40:06.474Z,54.59
2018-06-10T13:42:36.614Z,55.37
2018-06-10T13:45:06.673Z,57.16
2018-06-10T13:47:36.878Z,53.45
2018-06-10T13:50:07.077Z,55.61
2018-06-10T13:52:37.187Z,57.58
2018-06-10T13:55:07.297Z,53.52
2018-06-10T13:57:37.450Z,53.13
2018-06-10T14:00:07.742Z,53.53
2018-06-10T14:02:38.056Z,53.10
2018-06-10T14:05:08.141Z,50.42
2018-06-10T14:07:38.322Z,53.85
2018-06-10T14:10:08.029Z,52.76
2018-06-10T14:12:41.086Z,52.66
2018-06-10T14:15:11.379Z,52.02
2018-06-10T14:17:41.715Z,51.25
2018-06-10T14:20:12.009Z,52.23
2018-06-10T14:22:42.142Z,48.11
2018-06-10T14:25:12.345Z,49.40
2018-06-10T14:27:42.450Z,52.04
2018-06-10T14:30:12.781Z,48.98
2018-06-10T14:32:42.936Z,53.17
2018-06-10T14:35:13.151Z,55.73
2018-06-10T14:37:43.726Z,55.40
2018-06-10T14:40:14.021Z,53.36
2018-06-10T14:42:45.227Z,55.48
2018-06-10T14:45:15.389Z,54.94
2018-06-10T14:47:45.625Z,53.71
2018-06-10T14:50:15.777Z,53.69
2018-06-10T14:52:45.976Z,53.46
2018-06-10T14:55:16.198Z,54.42
2018-06-10T14:57:46.378Z,54.44
2018-06-10T15:00:16.588Z,53.97
2018-06-10T15:02:46.985Z,52.34
2018-06-10T15:05:17.124Z,53.61
2018-06-10T15:07:47.339Z,54.95
2018-06-10T15:10:17.449Z,54.22
2018-06-10T15:12:47.567Z,53.46
2018-06-10T15:15:17.700Z,52.63
2018-06-10T15:17:47.978Z,54.27
2018-06-10T15:20:18.046Z,52.31
2018-06-10T15:22:48.330Z,55.25
2018-06-10T15:25:18.774Z,55.36
2018-06-10T15:27:49.132Z,53.23
2018-06-10T15:30:19.396Z,54.89
2018-06-10T15:32:49.611Z,53.92
2018-06-10T15:35:19.928Z,54.34
2018-06-10T15:37:50.279Z,55.08
2018-06-10T15:40:20.558Z,52.32
2018-06-10T15:42:50.930Z,54.30
2018-06-10T15:45:21.122Z,50.53
2018-06-10T15:47:51.426Z,53.28
2018-06-10T15:50:21.739Z,51.00
2018-06-10T15:52:52.024Z,53.52
2018-06-10T15:55:22.398Z,51.59
2018-06-10T15:57:52.786Z,52.87
2018-06-10T16:00:23.133Z,51.16
2018-06-10T16:02:53.428Z,51.04
2018-06-10T16:05:24.710Z,51.51
2018-06-10T16:07:55.042Z,50.81
2018-06-10T16:10:25.978Z,51.45
2018-06-10T16:12:56.849Z,51.91
2018-06-10T16:15:27.070Z,50.83
2018-06-10T16:17:57.169Z,50.24
2018-06-10T16:20:30.196Z,51.00
2018-06-10T16:23:00.382Z,50.44
2018-06-10T16:25:30.589Z,50.78
2018-06-10T16:28:00.718Z,51.08
2018-06-10T16:30:30.767Z,50.88
2018-06-10T16:33:01.852Z,50.86
2018-06-10T16:35:32.116Z,51.25
2018-06-10T16:38:02.495Z,51.14
2018-06-10T16:40:32.653Z,50.98
2018-06-10T16:43:02.716Z,53.01
2018-06-10T16:45:32.802Z,52.35
2018-06-10T16:48:02.860Z,52.96
2018-06-10T16:50:32.972Z,52.08
2018-06-10T16:53:03.056Z,52.91
2018-06-10T16:55:33.163Z,51.53
2018-06-10T16:58:03.261Z,52.36
2018-06-10T17:00:33.425Z,53.34
2018-06-10T17:03:03.573Z,52.59
2018-06-10T17:05:33.704Z,51.39
2018-06-10T17:08:03.989Z,50.80
2018-06-10T17:10:34.079Z,52.02
2018-06-10T17:13:04.311Z,51.37
2018-06-10T17:15:34.481Z,51.25
2018-06-10T17:18:04.572Z,51.20
2018-06-10T17:20:34.702Z,51.22
2018-06-10T17:23:04.882Z,50.30
2018-06-10T17:25:35.005Z,51.09
2018-06-10T17:28:05.201Z,51.15
2018-06-10T17:30:35.325Z,50.53
2018-06-10T17:33:05.407Z,51.29
2018-06-10T17:35:35.112Z,52.00
2018-06-10T17:38:05.302Z,51.40
2018-06-10T17:40:35.431Z,51.42
2018-06-10T17:43:05.557Z,49.85
2018-06-10T17:45:35.669Z,50.79
2018-06-10T17:48:05.725Z,50.39
2018-06-10T17:50:35.922Z,51.30
2018-06-10T17:53:06.195Z,51.46
2018-06-10T17:55:36.299Z,52.14
2018-06-10T17:58:06.691Z,51.37
2018-06-10T18:00:36.865Z,52.06
2018-06-10T18:03:07.554Z,51.50
2018-06-10T18:05:38.818Z,52.52
2018-06-10T18:08:09.048Z,53.14
2018-06-10T18:10:39.293Z,52.42
2018-06-10T18:13:09.782Z,52.98
2018-06-10T18:15:39.909Z,53.01
2018-06-10T18:18:10.145Z,52.35
2018-06-10T18:20:40.228Z,52.46
2018-06-10T18:23:10.265Z,52.37
2018-06-10T18:25:40.331Z,52.08
2018-06-10T18:28:10.467Z,54.39
2018-06-10T18:30:40.697Z,54.85
2018-06-10T18:33:11.000Z,56.34
2018-06-10T18:35:41.270Z,54.49
2018-06-10T18:38:11.358Z,56.57
2018-06-10T18:40:41.527Z,57.61
2018-06-10T18:43:11.905Z,57.82
2018-06-10T18:45:42.069Z,59.48
2018-06-10T18:48:12.201Z,59.15
2018-06-10T18:50:42.455Z,59.90
2018-06-10T18:53:13.463Z,61.60
2018-06-10T18:55:43.747Z,62.89
2018-06-10T18:58:14.539Z,62.88
2018-06-10T19:00:44.704Z,62.34
2018-06-10T19:03:14.928Z,62.81
2018-06-10T19:05:45.091Z,64.30
2018-06-10T19:08:15.204Z,64.90
2018-06-10T19:10:45.466Z,65.36
2018-06-10T19:13:15.689Z,66.16
2018-06-10T19:15:45.940Z,66.70
2018-06-10T19:18:16.038Z,66.46
2018-06-10T19:20:46.264Z,66.44
2018-06-10T19:23:16.654Z,66.47
2018-06-10T19:25:46.440Z,66.73
2018-06-10T19:28:16.578Z,66.03
2018-06-10T19:30:46.771Z,67.42
2018-06-10T19:33:16.903Z,68.19
2018-06-10T19:35:47.081Z,68.48
2018-06-10T19:38:17.346Z,68.69
2018-06-10T19:40:47.562Z,68.45
2018-06-10T19:43:17.840Z,68.95
2018-06-10T19:45:48.102Z,69.37
2018-06-10T19:48:18.302Z,69.74
2018-06-10T19:50:49.535Z,69.87
2018-06-10T19:53:19.653Z,70.42
2018-06-10T19:55:49.893Z,70.81
2018-06-10T19:58:20.151Z,71.13
2018-06-10T20:00:50.354Z,71.72
2018-06-10T20:03:20.708Z,71.63
2018-06-10T20:05:51.001Z,71.41
2018-06-10T20:08:21.113Z,71.47
2018-06-10T20:10:51.421Z,72.16
2018-06-10T20:13:21.689Z,72.13
2018-06-10T20:15:51.885Z,71.96
2018-06-10T20:18:21.622Z,72.33
2018-06-10T20:20:52.093Z,72.43
2018-06-10T20:23:22.265Z,72.51
2018-06-10T20:25:52.534Z,73.11
2018-06-10T20:28:22.722Z,73.00
2018-06-10T20:30:52.837Z,73.24
2018-06-10T20:33:23.127Z,73.26
2018-06-10T20:35:53.339Z,73.11
2018-06-10T20:38:23.491Z,73.23
2018-06-10T20:40:53.952Z,73.92
2018-06-10T20:43:24.132Z,73.52
2018-06-10T20:45:54.540Z,73.91
2018-06-10T20:48:24.848Z,73.47
2018-06-10T20:50:55.740Z,73.19
2018-06-10T20:53:25.932Z,72.89
2018-06-10T20:55:56.080Z,72.80
2018-06-10T20:58:26.304Z,72.53
2018-06-10T21:00:56.404Z,72.83
2018-06-10T21:03:26.763Z,72.27
2018-06-10T21:05:56.855Z,72.45
2018-06-10T21:08:26.959Z,72.47
2018-06-10T21:10:56.971Z,73.13
2018-06-10T21:13:27.016Z,73.17
2018-06-10T21:15:57.280Z,73.04
2018-06-10T21:18:27.521Z,72.97
2018-06-10T21:20:57.493Z,72.58
2018-06-10T21:23:27.480Z,72.96
2018-06-10T21:25:57.462Z,73.00
2018-06-10T21:28:27.470Z,73.35
2018-06-10T21:30:57.698Z,73.94
2018-06-10T21:33:27.721Z,74.17
2018-06-10T21:35:57.724Z,74.81
2018-06-10T21:38:27.766Z,74.90
2018-06-10T21:40:58.017Z,74.26
2018-06-10T21:43:28.060Z,74.23
2018-06-10T21:45:58.087Z,73.67
2018-06-10T21:48:28.114Z,72.48
2018-06-10T21:50:58.120Z,72.38
2018-06-10T21:53:28.183Z,72.00
2018-06-10T21:55:58.240Z,71.67
2018-06-10T21:58:28.419Z,71.34
2018-06-10T22:00:59.068Z,70.94
2018-06-10T22:03:29.484Z,70.73
2018-06-10T22:05:59.508Z,71.34
2018-06-10T22:08:29.730Z,71.57
2018-06-10T22:10:59.716Z,72.20
2018-06-10T22:13:29.824Z,71.96
2018-06-10T22:15:59.923Z,71.40
2018-06-10T22:18:29.986Z,71.13
2018-06-10T22:21:00.037Z,71.78
2018-06-10T22:23:30.084Z,71.68
2018-06-10T22:26:00.077Z,72.54
2018-06-10T22:28:30.115Z,72.84
2018-06-10T22:31:00.134Z,72.68
2018-06-10T22:33:30.236Z,73.07
2018-06-10T22:36:00.288Z,73.39
2018-06-10T22:38:30.380Z,73.39
2018-06-10T22:41:00.402Z,73.69
2018-06-10T22:43:30.420Z,73.62
2018-06-10T22:46:00.432Z,74.21
2018-06-10T22:48:30.483Z,73.97
2018-06-10T22:51:00.492Z,74.21
2018-06-10T22:55:39.672Z,74.97
2018-06-10T22:58:09.743Z,74.91
2018-06-10T23:00:39.805Z,75.80
2018-06-10T23:03:09.966Z,75.58
2018-06-10T23:05:39.964Z,76.30
2018-06-10T23:08:09.980Z,77.13
2018-06-10T23:10:39.974Z,76.69
2018-06-10T23:13:10.049Z,76.55
2018-06-10T23:15:40.089Z,76.74
2018-06-10T23:18:10.098Z,76.61
2018-06-10T23:20:40.125Z,76.48
2018-06-10T23:23:10.128Z,76.53
2018-06-10T23:25:40.160Z,76.41
2018-06-10T23:28:10.258Z,76.50
2018-06-10T23:30:40.316Z,77.02
2018-06-10T23:33:10.376Z,77.14
2018-06-10T23:35:40.395Z,77.56
2018-06-10T23:38:10.414Z,78.12
2018-06-10T23:40:40.450Z,78.46
2018-06-10T23:43:10.499Z,78.75
2018-06-10T23:45:40.515Z,79.29
2018-06-10T23:48:10.536Z,79.26
2018-06-10T23:50:40.558Z,79.42
2018-06-10T23:53:10.637Z,79.50
2018-06-10T23:55:40.681Z,79.31
2018-06-10T23:58:10.893Z,79.73
